Time;durP1;ratioP1;P1;durP2;ratioP2;P2;SDS_P1;SDS_P2;PMS_P1;PMS_P2;Temp;Humidity;BMP_temperature;BMP_pressure;BME280_temperature;BME280_humidity;BME280_pressure;Samples;Min_cycle;Max_cycle;Signal;HPM_P1;HPM_P2
2022/07/08 00:00:23;;;;;;;8.93;1.55;;;14.80;99.90;;;;;;5014475;28;20077;-93
2022/07/08 00:02:49;;;;;;;7.03;1.55;;;14.70;99.90;;;;;;4973916;28;20049;-95
2022/07/08 00:05:19;;;;;;;6.05;1.70;;;14.70;99.90;;;;;;5021817;28;20208;-92
2022/07/08 00:07:45;;;;;;;10.23;1.90;;;14.70;99.90;;;;;;5002789;28;20498;-93
2022/07/08 00:10:12;;;;;;;5.55;1.63;;;14.70;99.90;;;;;;4987775;28;20065;-94
2022/07/08 00:12:41;;;;;;;9.30;1.90;;;14.60;99.90;;;;;;4968906;28;20060;-93
2022/07/08 00:15:30;;;;;;;9.05;1.77;;;14.60;99.90;;;;;;4983880;28;20046;-92
2022/07/08 00:17:59;;;;;;;8.38;1.48;;;14.60;99.90;;;;;;4945804;28;20530;-92
2022/07/08 00:20:49;;;;;;;8.70;2.10;;;14.50;99.90;;;;;;4921751;28;20042;-94
2022/07/08 00:23:28;;;;;;;10.48;2.33;;;14.50;99.90;;;;;;4942899;28;20455;-94
2022/07/08 00:25:57;;;;;;;9.77;2.30;;;14.50;99.90;;;;;;4948594;28;20051;-94
2022/07/08 00:28:29;;;;;;;8.88;2.03;;;14.40;99.90;;;;;;4966747;28;20049;-93
2022/07/08 00:30:56;;;;;;;10.43;1.83;;;14.30;99.90;;;;;;4931822;28;20542;-94
2022/07/08 00:33:22;;;;;;;10.13;1.60;;;14.30;99.90;;;;;;4946476;28;20529;-94
2022/07/08 00:35:49;;;;;;;8.05;1.92;;;14.30;99.90;;;;;;4947531;28;20061;-94
2022/07/08 00:38:20;;;;;;;9.57;2.47;;;14.30;99.90;;;;;;4996152;28;20490;-94
2022/07/08 00:41:05;;;;;;;11.60;2.97;;;14.30;99.90;;;;;;4947379;28;20046;-94
2022/07/08 00:43:46;;;;;;;9.48;2.20;;;14.30;99.90;;;;;;4965421;28;20047;-93
2022/07/08 00:46:19;;;;;;;7.72;2.30;;;14.40;99.90;;;;;;4976676;28;20137;-92
2022/07/08 00:48:45;;;;;;;12.30;2.42;;;14.30;99.90;;;;;;4957450;28;20047;-93
2022/07/08 00:51:14;;;;;;;11.77;2.22;;;14.30;99.90;;;;;;4947898;28;20105;-93
2022/07/08 00:53:45;;;;;;;11.05;2.42;;;14.30;99.90;;;;;;4963175;28;20059;-93
2022/07/08 00:56:12;;;;;;;7.65;1.42;;;14.30;99.90;;;;;;4936349;28;20058;-93
2022/07/08 00:58:40;;;;;;;6.78;1.90;;;14.30;99.90;;;;;;4966407;28;20046;-93
2022/07/08 01:01:07;;;;;;;11.27;2.05;;;14.30;99.90;;;;;;4947833;28;20043;-94
2022/07/08 01:03:33;;;;;;;8.48;1.80;;;14.30;99.90;;;;;;4978934;28;20051;-94
2022/07/08 01:06:00;;;;;;;13.88;2.55;;;14.20;99.90;;;;;;4948848;28;20049;-95
2022/07/08 01:08:26;;;;;;;8.20;2.40;;;14.20;99.90;;;;;;4961776;28;20087;-93
2022/07/08 01:10:54;;;;;;;7.85;2.28;;;14.10;99.90;;;;;;4980729;28;20414;-93
2022/07/08 01:13:24;;;;;;;9.30;2.25;;;14.10;99.90;;;;;;4981178;28;20038;-94
2022/07/08 01:15:50;;;;;;;10.93;2.63;;;14.00;99.90;;;;;;4980582;28;20112;-94
2022/07/08 01:18:25;;;;;;;10.48;2.10;;;13.90;99.90;;;;;;4985843;28;20069;-94
2022/07/08 01:20:52;;;;;;;5.15;2.33;;;13.90;99.90;;;;;;5002806;28;20053;-94
2022/07/08 01:23:19;;;;;;;6.43;2.10;;;13.80;99.90;;;;;;5019979;28;20065;-94
2022/07/08 01:25:46;;;;;;;11.07;2.10;;;13.70;99.90;;;;;;4987312;28;20517;-95
2022/07/08 01:28:19;;;;;;;13.93;2.25;;;13.60;99.90;;;;;;4990549;28;20056;-93
2022/07/08 01:30:46;;;;;;;12.38;2.45;;;13.50;99.90;;;;;;5002997;28;20038;-93
2022/07/08 01:33:12;;;;;;;10.20;2.33;;;13.50;99.90;;;;;;4974841;28;20381;-94
2022/07/08 01:35:38;;;;;;;8.82;2.03;;;13.50;99.90;;;;;;4972683;28;20046;-94
2022/07/08 01:38:05;;;;;;;9.45;2.20;;;13.50;99.90;;;;;;4991006;28;20046;-93
2022/07/08 01:40:34;;;;;;;9.88;2.25;;;13.40;99.90;;;;;;4993127;28;20049;-93
2022/07/08 01:43:01;;;;;;;10.80;2.33;;;13.30;99.90;;;;;;4990177;28;20362;-93
2022/07/08 01:45:27;;;;;;;11.25;3.38;;;13.30;99.90;;;;;;5019549;28;20086;-93
2022/07/08 01:47:53;;;;;;;8.18;2.47;;;13.20;99.90;;;;;;5006749;28;20041;-93
2022/07/08 01:50:20;;;;;;;13.50;2.60;;;13.20;99.90;;;;;;5018578;28;20042;-94
2022/07/08 01:52:46;;;;;;;5.93;2.33;;;13.10;99.90;;;;;;4992882;28;20132;-94
2022/07/08 01:55:12;;;;;;;9.38;2.65;;;13.10;99.90;;;;;;4971930;28;20042;-92
2022/07/08 01:57:39;;;;;;;11.15;3.15;;;13.10;99.90;;;;;;5003606;28;20055;-93
2022/07/08 02:00:06;;;;;;;9.35;2.28;;;13.00;99.90;;;;;;5020956;28;20567;-94
2022/07/08 02:02:39;;;;;;;9.18;2.60;;;13.00;99.90;;;;;;5005987;28;20042;-94
2022/07/08 02:05:06;;;;;;;13.43;3.13;;;12.90;99.90;;;;;;4988828;28;20050;-94
2022/07/08 02:07:33;;;;;;;9.10;2.63;;;13.00;99.90;;;;;;4986944;28;20053;-94
2022/07/08 02:10:00;;;;;;;10.55;2.45;;;12.90;99.90;;;;;;4990997;28;20046;-93
2022/07/08 02:12:27;;;;;;;14.52;2.70;;;12.90;99.90;;;;;;4972858;28;20046;-94
2022/07/08 02:15:01;;;;;;;10.85;2.78;;;12.90;99.90;;;;;;4972290;28;20471;-93
2022/07/08 02:17:41;;;;;;;10.52;2.40;;;12.90;99.90;;;;;;5005529;28;20054;-93
2022/07/08 02:20:10;;;;;;;12.52;2.65;;;12.90;99.90;;;;;;4988658;28;20133;-93
2022/07/08 02:22:37;;;;;;;9.65;2.25;;;12.90;99.90;;;;;;4973746;28;20507;-93
2022/07/08 02:25:04;;;;;;;9.35;2.60;;;12.80;99.90;;;;;;4989900;28;20235;-93
2022/07/08 02:27:31;;;;;;;12.70;3.13;;;12.80;99.90;;;;;;4986447;28;20046;-93
2022/07/08 02:29:57;;;;;;;8.65;2.35;;;12.80;99.90;;;;;;5022034;28;20042;-94
2022/07/08 02:32:23;;;;;;;8.73;3.20;;;12.70;99.90;;;;;;4987206;28;20427;-93
2022/07/08 02:34:50;;;;;;;12.57;2.92;;;12.70;99.90;;;;;;4969499;28;20496;-93
2022/07/08 02:37:16;;;;;;;11.70;3.42;;;12.70;99.90;;;;;;5016795;28;20056;-93
2022/07/08 02:39:42;;;;;;;9.25;2.42;;;12.60;99.90;;;;;;4988956;28;20045;-95
2022/07/08 02:42:10;;;;;;;10.23;2.80;;;12.60;99.90;;;;;;4969943;28;20133;-93
2022/07/08 02:44:36;;;;;;;9.43;2.50;;;12.60;99.90;;;;;;4988663;28;20104;-93
2022/07/08 02:47:07;;;;;;;7.28;2.40;;;12.60;99.90;;;;;;5006132;28;20172;-93
2022/07/08 02:49:33;;;;;;;11.15;2.70;;;12.50;99.90;;;;;;4973688;28;20049;-93
2022/07/08 02:52:00;;;;;;;8.52;2.65;;;12.50;99.90;;;;;;5004617;28;20104;-94
2022/07/08 02:54:26;;;;;;;11.30;2.45;;;12.50;99.90;;;;;;4987701;28;20132;-93
2022/07/08 02:56:52;;;;;;;10.50;2.65;;;12.50;99.90;;;;;;5004588;28;20390;-94
2022/07/08 02:59:19;;;;;;;14.27;2.95;;;12.50;99.90;;;;;;4990516;28;20520;-93
2022/07/08 03:01:45;;;;;;;8.68;2.88;;;12.40;99.90;;;;;;4969693;28;20101;-94
2022/07/08 03:04:11;;;;;;;11.18;2.97;;;12.40;99.90;;;;;;4988897;28;20041;-93
2022/07/08 03:06:38;;;;;;;8.60;2.60;;;12.40;99.90;;;;;;5004284;28;20050;-94
2022/07/08 03:09:04;;;;;;;7.97;2.65;;;12.40;99.90;;;;;;4988432;28;20049;-94
2022/07/08 03:11:31;;;;;;;10.48;2.92;;;12.40;99.90;;;;;;4985637;28;20052;-94
2022/07/08 03:13:57;;;;;;;11.63;2.80;;;12.40;99.90;;;;;;5021724;28;20150;-94
2022/07/08 03:16:23;;;;;;;12.55;3.00;;;12.40;99.90;;;;;;5020817;28;20053;-93
2022/07/08 03:18:50;;;;;;;8.60;3.17;;;12.40;99.90;;;;;;5016651;28;20149;-93
2022/07/08 03:21:16;;;;;;;8.93;2.83;;;12.40;99.90;;;;;;5010206;28;20042;-94
2022/07/08 03:23:43;;;;;;;9.90;3.22;;;12.40;99.90;;;;;;4971932;28;20077;-94
2022/07/08 03:26:09;;;;;;;10.30;2.92;;;12.40;99.90;;;;;;4984256;28;20053;-94
2022/07/08 03:28:36;;;;;;;10.02;2.95;;;12.40;99.90;;;;;;4988313;28;20074;-93
2022/07/08 03:31:02;;;;;;;10.18;3.45;;;12.30;99.90;;;;;;5004393;28;20053;-94
2022/07/08 03:33:28;;;;;;;11.43;3.20;;;12.30;99.90;;;;;;4988811;28;20061;-94
2022/07/08 03:35:58;;;;;;;10.88;2.40;;;12.30;99.90;;;;;;4994068;28;20042;-93
2022/07/08 03:38:24;;;;;;;13.75;3.25;;;12.30;99.90;;;;;;5003962;28;20099;-94
2022/07/08 03:43:36;;;;;;;9.35;2.88;;;12.20;99.90;;;;;;5017359;28;20050;-94
2022/07/08 03:46:02;;;;;;;10.00;2.58;;;12.20;99.90;;;;;;4987608;28;20142;-94
2022/07/08 03:48:31;;;;;;;9.52;2.55;;;12.20;99.90;;;;;;4987229;28;20048;-94
2022/07/08 03:50:57;;;;;;;12.52;3.10;;;12.30;99.90;;;;;;4990109;28;20042;-94
2022/07/08 03:53:24;;;;;;;8.32;2.72;;;12.30;99.90;;;;;;5007584;28;20037;-94
2022/07/08 03:55:50;;;;;;;8.88;2.95;;;12.30;99.90;;;;;;4987973;28;20088;-94
2022/07/08 03:58:17;;;;;;;12.95;3.10;;;12.40;99.90;;;;;;5003980;28;20084;-93
2022/07/08 04:00:44;;;;;;;9.63;2.55;;;12.30;99.90;;;;;;5003369;28;20061;-94
2022/07/08 04:03:10;;;;;;;10.00;2.80;;;12.40;99.90;;;;;;4973022;28;20042;-94
2022/07/08 04:05:37;;;;;;;9.23;2.58;;;12.50;99.90;;;;;;4972795;28;20133;-94
2022/07/08 04:08:05;;;;;;;10.93;2.88;;;12.50;99.90;;;;;;4985962;28;20045;-94
2022/07/08 04:10:34;;;;;;;11.75;2.92;;;12.50;99.90;;;;;;4987006;28;20366;-94
2022/07/08 04:13:00;;;;;;;14.10;3.15;;;12.50;99.90;;;;;;4987579;28;20052;-94
2022/07/08 04:15:27;;;;;;;8.25;2.50;;;12.60;99.90;;;;;;4968487;28;20050;-94
2022/07/08 04:17:53;;;;;;;10.05;2.85;;;12.70;99.90;;;;;;5004358;28;20072;-94
2022/07/08 04:20:21;;;;;;;8.25;2.35;;;12.70;99.90;;;;;;5008355;28;20037;-94
2022/07/08 04:22:47;;;;;;;7.80;2.42;;;12.70;99.90;;;;;;5008941;28;20053;-94
2022/07/08 04:25:15;;;;;;;13.55;3.15;;;12.70;99.90;;;;;;4969602;28;20053;-93
2022/07/08 04:27:41;;;;;;;9.55;3.03;;;12.70;99.90;;;;;;4986388;28;20037;-95
2022/07/08 04:30:08;;;;;;;9.07;2.80;;;12.80;99.90;;;;;;5010701;28;20042;-94
2022/07/08 04:32:34;;;;;;;9.65;2.78;;;12.70;99.90;;;;;;5013339;28;20037;-94
2022/07/08 04:35:01;;;;;;;10.68;2.88;;;12.70;99.90;;;;;;4991545;28;20451;-94
2022/07/08 04:37:27;;;;;;;9.60;2.70;;;12.80;99.90;;;;;;4992565;28;20188;-95
2022/07/08 04:39:54;;;;;;;8.70;2.70;;;12.80;99.90;;;;;;4987555;28;20050;-94
2022/07/08 04:42:21;;;;;;;11.20;3.05;;;12.80;99.90;;;;;;4992883;28;20055;-94
2022/07/08 04:44:48;;;;;;;6.15;2.55;;;12.90;99.90;;;;;;4988058;28;20087;-93
2022/07/08 04:47:38;;;;;;;11.15;3.33;;;12.90;99.90;;;;;;4971013;28;20046;-94
2022/07/08 04:50:07;;;;;;;11.43;3.13;;;12.90;99.90;;;;;;4972964;28;20065;-94
2022/07/08 04:52:40;;;;;;;7.10;2.65;;;13.10;99.90;;;;;;4993914;28;20037;-95
2022/07/08 04:55:07;;;;;;;12.77;3.60;;;13.20;99.90;;;;;;5025191;28;20428;-94
2022/07/08 04:57:34;;;;;;;8.15;3.17;;;13.30;99.90;;;;;;4995434;28;20045;-94
2022/07/08 05:00:01;;;;;;;11.25;2.72;;;13.40;99.90;;;;;;4997967;28;20052;-93
2022/07/08 05:02:31;;;;;;;12.65;3.55;;;13.40;99.90;;;;;;5017034;28;20056;-94
2022/07/08 05:05:01;;;;;;;11.15;2.70;;;13.40;99.90;;;;;;4996670;28;20046;-94
2022/07/08 05:07:32;;;;;;;10.07;3.20;;;13.50;99.90;;;;;;4994218;28;20096;-93
2022/07/08 05:10:01;;;;;;;9.77;3.15;;;13.60;99.90;;;;;;5008383;28;20042;-91
2022/07/08 05:12:32;;;;;;;9.45;3.05;;;13.80;99.90;;;;;;5000248;28;20054;-92
2022/07/08 05:15:02;;;;;;;12.75;2.83;;;14.10;99.90;;;;;;4982609;28;20065;-92
2022/07/08 05:17:29;;;;;;;10.82;2.63;;;14.60;99.90;;;;;;4994344;28;20057;-91
2022/07/08 05:19:56;;;;;;;9.25;2.45;;;14.80;99.90;;;;;;4993241;28;20353;-93
2022/07/08 05:22:22;;;;;;;11.93;2.65;;;14.80;99.90;;;;;;4961555;28;20143;-83
2022/07/08 05:24:48;;;;;;;9.63;2.80;;;14.70;99.90;;;;;;4972334;28;20045;-83
2022/07/08 05:27:14;;;;;;;10.23;2.10;;;14.70;99.90;;;;;;4986132;28;20042;-82
2022/07/08 05:29:40;;;;;;;8.35;3.17;;;14.80;99.90;;;;;;5034485;28;20125;-83
2022/07/08 05:32:07;;;;;;;37.28;28.73;;;14.80;99.90;;;;;;4986672;28;20572;-83
2022/07/08 05:34:33;;;;;;;37.65;27.45;;;14.80;99.90;;;;;;5002320;28;20042;-83
2022/07/08 05:37:00;;;;;;;7.40;2.88;;;15.00;99.90;;;;;;5000557;28;20129;-83
2022/07/08 05:39:27;;;;;;;16.05;8.13;;;15.00;99.90;;;;;;5034896;28;20049;-83
2022/07/08 05:41:53;;;;;;;12.52;3.40;;;15.10;99.90;;;;;;4986530;28;20437;-83
2022/07/08 05:44:19;;;;;;;9.15;3.10;;;15.30;99.90;;;;;;4972268;28;20130;-83
2022/07/08 05:46:45;;;;;;;13.70;7.32;;;15.40;99.90;;;;;;5018378;28;20048;-83
2022/07/08 05:49:11;;;;;;;8.77;2.53;;;15.70;99.90;;;;;;4955203;28;20571;-83
2022/07/08 05:51:37;;;;;;;12.40;3.15;;;15.80;99.90;;;;;;5001565;28;20390;-83
2022/07/08 05:54:03;;;;;;;8.30;2.47;;;16.00;99.90;;;;;;4967752;28;20413;-83
2022/07/08 05:56:30;;;;;;;10.15;2.47;;;16.00;99.90;;;;;;4996838;28;20062;-83
2022/07/08 05:58:56;;;;;;;11.60;2.20;;;16.20;99.90;;;;;;4999572;28;20348;-83
2022/07/08 06:01:22;;;;;;;12.18;4.95;;;16.50;99.90;;;;;;5004173;28;20052;-83
2022/07/08 06:03:48;;;;;;;12.75;6.60;;;16.80;99.90;;;;;;4983768;28;20045;-83
2022/07/08 06:06:15;;;;;;;11.50;2.42;;;17.10;99.90;;;;;;5014067;28;20471;-84
2022/07/08 06:08:42;;;;;;;5.80;2.10;;;17.30;99.90;;;;;;4984095;28;20037;-84
2022/07/08 06:11:08;;;;;;;22.55;16.20;;;17.60;99.90;;;;;;4997918;28;20084;-84
2022/07/08 06:13:34;;;;;;;11.15;3.53;;;17.90;99.90;;;;;;5002032;28;20555;-84
2022/07/08 06:16:01;;;;;;;12.13;2.92;;;18.10;99.90;;;;;;4987492;28;20062;-83
2022/07/08 06:18:27;;;;;;;8.02;2.85;;;18.20;99.90;;;;;;4967001;28;20517;-85
2022/07/08 06:20:53;;;;;;;11.82;2.85;;;18.50;99.90;;;;;;4982508;28;20057;-83
2022/07/08 06:23:19;;;;;;;9.35;3.47;;;18.70;99.90;;;;;;4974516;28;20049;-83
2022/07/08 06:25:45;;;;;;;10.40;3.22;;;19.00;99.90;;;;;;5009733;28;20054;-83
2022/07/08 06:28:12;;;;;;;12.35;2.67;;;19.00;99.90;;;;;;4967569;28;20042;-84
2022/07/08 06:30:38;;;;;;;6.95;1.98;;;19.20;99.90;;;;;;4984175;28;20595;-84
2022/07/08 06:33:05;;;;;;;33.78;26.48;;;19.00;99.90;;;;;;4984026;28;20100;-83
2022/07/08 06:35:32;;;;;;;8.85;2.20;;;18.70;99.90;;;;;;4983741;28;20045;-84
2022/07/08 06:37:58;;;;;;;9.98;2.80;;;18.70;99.90;;;;;;4951683;28;20079;-83
2022/07/08 06:40:25;;;;;;;8.15;1.85;;;18.50;99.90;;;;;;4997748;28;20808;-83
2022/07/08 06:42:51;;;;;;;15.48;8.77;;;18.40;99.90;;;;;;4982243;28;20070;-83
2022/07/08 06:45:18;;;;;;;8.32;2.58;;;18.30;99.90;;;;;;5006059;28;20457;-83
2022/07/08 06:47:45;;;;;;;9.18;2.85;;;18.20;99.90;;;;;;4973843;28;20042;-83
2022/07/08 06:50:11;;;;;;;12.10;2.30;;;18.20;99.90;;;;;;5016722;28;20084;-83
2022/07/08 06:52:38;;;;;;;8.07;2.75;;;18.00;99.90;;;;;;5004917;28;20045;-83
2022/07/08 06:55:05;;;;;;;10.82;3.33;;;18.10;99.90;;;;;;4984294;28;20077;-82
2022/07/08 06:57:31;;;;;;;12.20;2.35;;;18.00;99.90;;;;;;4982740;28;20162;-81
2022/07/08 06:59:57;;;;;;;9.43;2.10;;;18.00;99.90;;;;;;5013262;28;20112;-82
2022/07/08 07:02:23;;;;;;;9.05;2.08;;;18.00;99.90;;;;;;4967145;28;20145;-82
2022/07/08 07:04:50;;;;;;;8.52;2.53;;;17.80;99.90;;;;;;4951929;28;20089;-82
2022/07/08 07:07:16;;;;;;;11.77;3.05;;;17.90;99.90;;;;;;4998935;28;20615;-82
2022/07/08 07:09:42;;;;;;;11.07;2.28;;;18.10;99.90;;;;;;4979225;28;20099;-82
2022/07/08 07:12:11;;;;;;;6.80;2.15;;;18.20;99.90;;;;;;4995745;28;20088;-86
2022/07/08 07:14:37;;;;;;;9.10;2.35;;;18.10;99.90;;;;;;5001912;28;20054;-82
2022/07/08 07:17:04;;;;;;;8.05;2.10;;;18.20;99.90;;;;;;4999023;28;20086;-82
2022/07/08 07:19:30;;;;;;;12.80;5.72;;;18.30;99.90;;;;;;4965262;28;20052;-82
2022/07/08 07:21:56;;;;;;;8.65;2.53;;;18.40;99.90;;;;;;4999729;28;20303;-82
2022/07/08 07:24:22;;;;;;;16.80;10.93;;;18.40;99.90;;;;;;4983674;28;20128;-82
2022/07/08 07:26:48;;;;;;;12.57;6.07;;;18.40;99.90;;;;;;4974255;28;20270;-81
2022/07/08 07:29:15;;;;;;;8.30;2.22;;;18.60;99.90;;;;;;4954758;28;20619;-82
2022/07/08 07:31:42;;;;;;;13.48;2.45;;;18.80;99.90;;;;;;4985554;28;20643;-82
2022/07/08 07:34:08;;;;;;;11.25;3.00;;;19.00;99.90;;;;;;4965125;28;20042;-82
2022/07/08 07:36:34;;;;;;;9.95;5.05;;;18.90;99.90;;;;;;4949218;28;20049;-82
2022/07/08 07:39:01;;;;;;;12.48;3.47;;;18.80;99.90;;;;;;4982911;28;20444;-82
2022/07/08 07:41:27;;;;;;;11.57;2.22;;;18.90;99.90;;;;;;4999960;28;20418;-83
2022/07/08 07:43:53;;;;;;;10.98;2.40;;;18.70;99.90;;;;;;4967767;28;20061;-82
2022/07/08 07:46:19;;;;;;;10.70;2.75;;;18.70;99.90;;;;;;4987503;28;20641;-82
2022/07/08 07:48:46;;;;;;;9.60;2.13;;;18.80;99.90;;;;;;4970826;28;20490;-82
2022/07/08 07:51:12;;;;;;;7.07;2.15;;;18.80;99.90;;;;;;4983188;28;20042;-82
2022/07/08 07:53:38;;;;;;;9.20;2.17;;;18.80;99.90;;;;;;4981348;28;20045;-81
2022/07/08 07:56:07;;;;;;;13.13;5.13;;;18.90;99.90;;;;;;4970985;28;20045;-82
2022/07/08 07:58:33;;;;;;;14.35;6.57;;;18.90;99.90;;;;;;5008993;28;20567;-82
2022/07/08 08:01:00;;;;;;;9.38;2.80;;;18.90;99.90;;;;;;5002064;28;20053;-81
2022/07/08 08:03:26;;;;;;;12.45;3.78;;;19.00;99.90;;;;;;4984920;28;20133;-81
2022/07/08 08:05:52;;;;;;;12.68;2.70;;;19.00;99.90;;;;;;5000188;28;21679;-82
2022/07/08 08:08:18;;;;;;;8.13;1.92;;;19.10;99.90;;;;;;4962483;28;20133;-82
2022/07/08 08:10:44;;;;;;;10.15;2.35;;;19.30;99.90;;;;;;4969171;28;20541;-82
2022/07/08 08:13:11;;;;;;;9.15;3.55;;;19.20;99.90;;;;;;4998289;28;20038;-80
2022/07/08 08:15:37;;;;;;;5.85;2.47;;;19.30;99.90;;;;;;5001689;28;20049;-81
2022/07/08 08:18:04;;;;;;;9.68;2.22;;;19.40;99.90;;;;;;4989321;28;20124;-81
2022/07/08 08:20:30;;;;;;;9.25;3.13;;;19.20;99.90;;;;;;5017198;28;20406;-81
2022/07/08 08:22:58;;;;;;;12.70;5.78;;;19.10;99.90;;;;;;5013720;28;20042;-81
2022/07/08 08:25:26;;;;;;;7.68;2.78;;;19.20;99.90;;;;;;5000922;28;20585;-81
2022/07/08 08:27:53;;;;;;;7.45;3.28;;;19.30;99.90;;;;;;4983348;28;20046;-81
2022/07/08 08:30:19;;;;;;;9.23;3.92;;;19.30;99.90;;;;;;4974187;28;20042;-81
2022/07/08 08:32:46;;;;;;;9.07;2.90;;;19.40;99.90;;;;;;5003221;28;20127;-81
2022/07/08 08:35:12;;;;;;;10.23;4.07;;;19.40;99.90;;;;;;4973537;28;20053;-81
2022/07/08 08:37:39;;;;;;;9.52;1.73;;;19.70;99.90;;;;;;4989550;28;20053;-80
2022/07/08 08:40:09;;;;;;;14.88;7.18;;;20.00;99.90;;;;;;5029580;28;20037;-81
2022/07/08 08:42:36;;;;;;;7.28;2.75;;;20.30;99.90;;;;;;5040192;28;20046;-81
2022/07/08 08:45:03;;;;;;;9.50;4.50;;;20.20;99.90;;;;;;4990712;28;20056;-81
2022/07/08 08:47:32;;;;;;;9.40;2.13;;;20.50;99.90;;;;;;5006288;28;20103;-81
2022/07/08 08:52:50;;;;;;;12.30;2.50;;;20.80;99.90;;;;;;5001781;28;20852;-81
2022/07/08 08:55:23;;;;;;;7.90;2.13;;;20.90;99.90;;;;;;4986236;28;20370;-82
2022/07/08 08:57:49;;;;;;;11.48;6.20;;;21.00;99.90;;;;;;4998232;28;20077;-81
2022/07/08 09:00:15;;;;;;;7.82;4.07;;;21.20;99.90;;;;;;5000875;28;20089;-82
2022/07/08 09:02:41;;;;;;;9.73;2.20;;;21.30;99.90;;;;;;5001952;28;20058;-82
2022/07/08 09:05:08;;;;;;;8.50;2.45;;;21.50;99.90;;;;;;4988130;28;20041;-82
2022/07/08 09:07:35;;;;;;;6.22;2.33;;;21.60;99.90;;;;;;5002258;28;20053;-82
2022/07/08 09:10:01;;;;;;;9.68;4.38;;;21.70;99.90;;;;;;5005792;28;20037;-82
2022/07/08 09:12:27;;;;;;;8.90;3.28;;;21.50;99.90;;;;;;4972422;28;20057;-82
2022/07/08 09:14:54;;;;;;;8.05;2.45;;;21.30;99.90;;;;;;5016838;28;20100;-81
2022/07/08 09:17:21;;;;;;;9.48;5.18;;;21.20;99.90;;;;;;4956878;28;20536;-82
2022/07/08 09:19:49;;;;;;;14.40;7.50;;;20.90;99.90;;;;;;4951797;28;20860;-81
2022/07/08 09:22:15;;;;;;;6.63;2.60;;;20.80;99.90;;;;;;4983935;28;20046;-82
2022/07/08 09:24:43;;;;;;;10.43;2.30;;;20.70;99.90;;;;;;5016958;28;20053;-82
2022/07/08 09:27:11;;;;;;;7.55;2.38;;;20.60;99.90;;;;;;4991180;28;20270;-81
2022/07/08 09:29:56;;;;;;;10.02;3.72;;;20.50;99.90;;;;;;4970459;28;20064;-81
2022/07/08 09:32:22;;;;;;;8.15;2.58;;;20.60;99.90;;;;;;4986976;28;20060;-82
2022/07/08 09:34:48;;;;;;;8.43;2.50;;;20.50;99.90;;;;;;5004754;28;20034;-82
2022/07/08 09:37:16;;;;;;;7.40;2.10;;;20.50;99.90;;;;;;5001546;28;20383;-82
2022/07/08 09:39:43;;;;;;;7.63;2.85;;;20.70;99.90;;;;;;4987462;28;20064;-83
2022/07/08 09:42:11;;;;;;;15.63;10.05;;;20.80;99.90;;;;;;5000374;28;20049;-82
2022/07/08 09:44:38;;;;;;;7.57;4.07;;;21.00;99.90;;;;;;4985821;28;20054;-82
2022/07/08 09:47:15;;;;;;;10.63;5.90;;;21.20;99.90;;;;;;4970043;28;21026;-81
2022/07/08 09:49:46;;;;;;;11.90;5.93;;;21.10;99.90;;;;;;5000878;28;20046;-80
2022/07/08 09:52:23;;;;;;;7.50;2.38;;;21.30;99.90;;;;;;4982670;28;20086;-81
2022/07/08 09:55:01;;;;;;;6.97;2.38;;;21.30;99.90;;;;;;5001829;28;20164;-82
2022/07/08 09:57:29;;;;;;;8.05;2.70;;;21.30;99.90;;;;;;5001578;28;20137;-81
2022/07/08 09:59:56;;;;;;;9.93;3.08;;;21.40;99.90;;;;;;5004988;28;20518;-82
2022/07/08 10:02:23;;;;;;;10.90;2.95;;;21.10;99.90;;;;;;5017600;28;20356;-82
2022/07/08 10:04:50;;;;;;;7.03;2.75;;;21.00;99.90;;;;;;5007235;28;20046;-81
2022/07/08 10:07:17;;;;;;;11.80;4.43;;;20.90;99.90;;;;;;5015113;28;20134;-80
2022/07/08 10:09:46;;;;;;;7.75;2.80;;;20.80;99.90;;;;;;5034370;28;20064;-82
2022/07/08 10:12:14;;;;;;;7.88;2.60;;;20.70;99.90;;;;;;4990412;28;20065;-82
2022/07/08 10:14:46;;;;;;;8.10;2.50;;;20.70;99.90;;;;;;4985617;28;20053;-82
2022/07/08 10:17:17;;;;;;;13.23;4.80;;;20.80;99.90;;;;;;4999180;28;20061;-82
2022/07/08 10:19:45;;;;;;;8.40;4.78;;;20.70;99.90;;;;;;4992209;28;20050;-82
2022/07/08 10:22:14;;;;;;;10.48;3.72;;;20.70;99.90;;;;;;4983800;28;20493;-82
2022/07/08 10:24:42;;;;;;;7.57;2.47;;;20.70;99.90;;;;;;4981167;28;20346;-82
2022/07/08 10:27:10;;;;;;;7.88;2.30;;;20.70;99.90;;;;;;5015193;28;20052;-82
2022/07/08 10:29:39;;;;;;;7.57;2.10;;;20.90;99.90;;;;;;5005498;28;20398;-81
2022/07/08 10:32:28;;;;;;;8.18;2.20;;;20.90;99.90;;;;;;4967893;28;20041;-82
2022/07/08 10:35:19;;;;;;;7.57;2.85;;;21.00;99.90;;;;;;4974702;28;20108;-82
2022/07/08 10:37:47;;;;;;;8.38;2.53;;;21.20;99.90;;;;;;5015650;28;20142;-81
2022/07/08 10:40:13;;;;;;;11.30;5.45;;;21.50;99.90;;;;;;4968091;28;20050;-82
2022/07/08 10:43:03;;;;;;;8.77;2.95;;;21.60;99.90;;;;;;5033837;28;20516;-81
2022/07/08 10:45:29;;;;;;;21.65;19.10;;;21.70;99.90;;;;;;4981533;28;20507;-82
2022/07/08 10:48:08;;;;;;;8.20;3.53;;;21.90;99.90;;;;;;4950361;28;20050;-83
2022/07/08 10:50:35;;;;;;;8.75;4.00;;;21.80;99.90;;;;;;4992827;28;20321;-81
2022/07/08 10:53:01;;;;;;;7.50;2.50;;;22.00;99.90;;;;;;4968825;28;20158;-81
2022/07/08 10:55:28;;;;;;;8.05;2.30;;;22.20;99.90;;;;;;4981407;28;20069;-81
2022/07/08 10:57:58;;;;;;;6.75;3.10;;;22.30;99.90;;;;;;4994966;28;20082;-81
2022/07/08 11:00:24;;;;;;;13.50;8.77;;;22.40;99.90;;;;;;5015809;28;20090;-80
2022/07/08 11:02:52;;;;;;;8.00;2.15;;;22.40;99.90;;;;;;4999531;28;20050;-81
2022/07/08 11:05:39;;;;;;;8.02;2.08;;;22.10;99.90;;;;;;4984146;28;20045;-81
2022/07/08 11:08:21;;;;;;;6.70;3.25;;;21.90;99.90;;;;;;4998709;28;20489;-81
2022/07/08 11:10:48;;;;;;;;;;;22.00;99.90;;;;;;5013657;28;20421;-80
2022/07/08 11:13:14;;;;;;;5.15;1.92;;;21.80;99.90;;;;;;4983889;28;19922;-82
2022/07/08 11:15:40;;;;;;;8.00;2.58;;;22.00;99.90;;;;;;4982991;28;20066;-81
2022/07/08 11:18:07;;;;;;;9.27;2.17;;;22.20;99.90;;;;;;5001273;28;20050;-81
2022/07/08 11:20:35;;;;;;;6.07;2.28;;;22.40;99.90;;;;;;5006434;28;20081;-82
2022/07/08 11:23:05;;;;;;;9.68;2.55;;;22.70;99.90;;;;;;4967281;28;20157;-80
2022/07/08 11:25:32;;;;;;;7.13;1.98;;;22.80;99.90;;;;;;5015745;28;20049;-80
2022/07/08 11:27:59;;;;;;;4.63;1.77;;;23.00;99.90;;;;;;4949548;28;20084;-81
2022/07/08 11:30:33;;;;;;;8.02;2.70;;;23.30;99.90;;;;;;5014559;28;20041;-81
2022/07/08 11:33:00;;;;;;;7.05;1.77;;;23.50;99.90;;;;;;5010723;28;20046;-81
2022/07/08 11:35:26;;;;;;;7.65;2.83;;;24.60;99.90;;;;;;4993150;28;20133;-82
2022/07/08 11:37:53;;;;;;;8.80;2.95;;;24.70;99.90;;;;;;4980069;28;20092;-81
2022/07/08 11:40:19;;;;;;;9.95;3.90;;;24.40;99.90;;;;;;5031472;28;20571;-81
2022/07/08 11:42:45;;;;;;;7.03;2.13;;;25.00;99.90;;;;;;4980220;28;20088;-81
2022/07/08 11:45:13;;;;;;;6.30;2.78;;;25.10;99.90;;;;;;4964388;28;20139;-81
2022/07/08 11:47:42;;;;;;;8.30;3.17;;;25.10;99.90;;;;;;4999399;28;20129;-81
2022/07/08 11:50:10;;;;;;;7.13;2.45;;;25.20;99.90;;;;;;4997156;28;20052;-81
2022/07/08 11:52:36;;;;;;;7.50;2.35;;;25.40;99.90;;;;;;4998770;28;20047;-82
2022/07/08 11:55:07;;;;;;;7.43;2.63;;;25.20;99.90;;;;;;5016955;28;20045;-81
2022/07/08 11:57:40;;;;;;;10.55;6.75;;;25.00;99.90;;;;;;5013827;28;20461;-81
2022/07/08 12:00:06;;;;;;;9.73;1.88;;;24.90;99.90;;;;;;5033025;28;20077;-81
2022/07/08 12:02:38;;;;;;;6.00;2.15;;;25.20;99.90;;;;;;4994575;28;20049;-80
2022/07/08 12:05:08;;;;;;;6.20;2.08;;;25.40;99.90;;;;;;4964675;28;20454;-80
2022/07/08 12:07:36;;;;;;;7.10;2.25;;;25.90;99.90;;;;;;4983020;28;20057;-81
2022/07/08 12:10:05;;;;;;;8.30;2.13;;;26.60;99.90;;;;;;5012812;28;20906;-81
2022/07/08 12:12:32;;;;;;;8.90;2.58;;;27.00;99.90;;;;;;4982832;28;20095;-81
2022/07/08 12:15:16;;;;;;;5.93;2.92;;;26.50;99.90;;;;;;4997981;28;20056;-80
2022/07/08 12:17:57;;;;;;;31.35;28.13;;;26.30;99.90;;;;;;5012481;28;20108;-81
2022/07/08 12:20:34;;;;;;;14.70;11.20;;;25.90;99.90;;;;;;4994441;28;20494;-80
2022/07/08 12:23:01;;;;;;;7.35;3.72;;;25.80;99.90;;;;;;4981305;28;20641;-80
2022/07/08 12:25:28;;;;;;;9.60;3.35;;;25.90;99.90;;;;;;4998246;28;21166;-80
2022/07/08 12:27:59;;;;;;;6.55;3.03;;;26.20;99.90;;;;;;4959086;28;20077;-80
2022/07/08 12:30:30;;;;;;;6.72;1.98;;;26.40;99.90;;;;;;4991706;28;20054;-80
2022/07/08 12:33:00;;;;;;;;;;;26.40;99.90;;;;;;5028835;28;20048;-80
2022/07/08 12:35:29;;;;;;;4.50;1.92;;;26.20;99.90;;;;;;4977388;28;19951;-81
2022/07/08 12:38:06;;;;;;;4.22;1.83;;;25.70;99.90;;;;;;4997246;28;20402;-80
2022/07/08 12:40:44;;;;;;;6.43;2.03;;;25.20;99.90;;;;;;4996548;28;20053;-80
2022/07/08 12:43:13;;;;;;;6.63;2.17;;;24.90;99.90;;;;;;4964902;28;20045;-80
2022/07/08 12:45:39;;;;;;;12.40;8.10;;;25.60;99.90;;;;;;5006945;28;20050;-81
2022/07/08 12:48:06;;;;;;;6.25;3.17;;;26.10;99.90;;;;;;4963715;28;20065;-81
2022/07/08 12:50:34;;;;;;;7.88;2.80;;;26.40;99.90;;;;;;4980678;28;20045;-81
2022/07/08 12:53:02;;;;;;;4.32;1.85;;;26.00;99.90;;;;;;4982548;28;20038;-81